Time;durP1;ratioP1;P1;durP2;ratioP2;P2;SDS_P1;SDS_P2;PMS_P1;PMS_P2;Temp;Humidity;BMP_temperature;BMP_pressure;BME280_temperature;BME280_humidity;BME280_pressure;Samples;Min_cycle;Max_cycle;Signal;HPM_P1;HPM_P2
2022/12/11 00:01:58;;;;;;;23.50;9.90;;;;;;;5.64;100.00;97856.34;4320171;80;28551;-81
2022/12/11 00:07:59;;;;;;;24.57;10.30;;;;;;;5.56;100.00;97854.00;4338913;80;28958;-80
2022/12/11 00:14:00;;;;;;;23.90;10.72;;;;;;;6.02;100.00;97841.02;4338449;82;29249;-82
2022/12/11 00:20:01;;;;;;;23.40;9.43;;;;;;;5.78;100.00;97844.96;4324882;82;28546;-82
2022/12/11 00:26:14;;;;;;;22.20;9.98;;;;;;;5.68;100.00;97838.04;4331062;81;28656;-82
2022/12/11 00:32:15;;;;;;;23.40;10.23;;;;;;;5.01;100.00;97839.25;4320921;81;28537;-82
2022/12/11 00:38:19;;;;;;;20.65;8.98;;;;;;;5.81;100.00;97823.16;4359073;80;28523;-82
2022/12/11 00:44:20;;;;;;;19.45;9.25;;;;;;;5.84;100.00;97815.22;4383623;80;28497;-81
2022/12/11 00:50:22;;;;;;;22.00;9.85;;;;;;;5.99;100.00;97809.44;4403756;80;28524;-81
2022/12/11 00:56:24;;;;;;;18.17;8.18;;;;;;;6.23;100.00;97805.45;4291379;81;28579;-82
2022/12/11 01:02:25;;;;;;;17.35;8.65;;;;;;;5.63;100.00;97813.90;4386047;80;28486;-81
2022/12/11 01:08:26;;;;;;;17.07;7.95;;;;;;;5.75;100.00;97806.73;4393081;78;28534;-82
2022/12/11 01:14:27;;;;;;;17.62;8.53;;;;;;;5.99;100.00;97805.44;4370269;80;28525;-82
2022/12/11 01:20:28;;;;;;;17.67;8.65;;;;;;;5.53;100.00;97805.94;4410670;79;28528;-82
2022/12/11 01:26:29;;;;;;;16.12;8.03;;;;;;;6.09;100.00;97807.03;4438287;80;28597;-81
2022/12/11 01:32:31;;;;;;;17.45;8.68;;;;;;;5.71;100.00;97812.23;4429644;80;28530;-81
2022/12/11 01:38:32;;;;;;;18.02;9.40;;;;;;;5.62;100.00;97812.28;4426640;80;28530;-81
2022/12/11 01:44:37;;;;;;;18.77;8.63;;;;;;;6.30;100.00;97806.66;4426498;80;28486;-83
2022/12/11 01:50:45;;;;;;;18.15;8.93;;;;;;;6.36;100.00;97800.41;4341659;81;28562;-82
2022/12/11 01:56:47;;;;;;;18.52;8.50;;;;;;;6.49;100.00;97804.14;4325116;82;28564;-82
2022/12/11 02:02:48;;;;;;;19.30;9.83;;;;;;;6.52;100.00;97794.86;4322329;81;28497;-82
2022/12/11 02:08:49;;;;;;;18.87;8.55;;;;;;;6.70;100.00;97781.86;4317389;81;28551;-84
2022/12/11 02:14:54;;;;;;;20.02;9.50;;;;;;;6.18;100.00;97783.47;4337994;81;28506;-84
2022/12/11 02:21:11;;;;;;;19.10;9.00;;;;;;;5.93;100.00;97775.13;4343756;82;34444;-85
2022/12/11 02:27:36;;;;;;;17.10;8.78;;;;;;;5.94;100.00;97772.78;4353096;82;28589;-84
2022/12/11 02:33:47;;;;;;;16.32;8.60;;;;;;;5.42;100.00;97772.07;4311777;81;28570;-84
2022/12/11 02:39:49;;;;;;;16.20;8.18;;;;;;;6.23;100.00;97766.21;4316397;82;28534;-84
2022/12/11 02:45:51;;;;;;;17.52;8.35;;;;;;;5.70;100.00;97764.74;4327637;81;28559;-85
2022/12/11 02:51:53;;;;;;;18.52;8.33;;;;;;;5.38;100.00;97765.58;4309179;81;28896;-85
2022/12/11 02:58:10;;;;;;;18.80;9.23;;;;;;;5.35;100.00;97760.18;4323626;82;28499;-86
2022/12/11 03:04:11;;;;;;;16.40;8.65;;;;;;;5.52;100.00;97762.16;4294883;82;28545;-86
2022/12/11 03:10:14;;;;;;;17.65;8.00;;;;;;;5.57;100.00;97763.13;4328510;81;28494;-86
2022/12/11 03:16:38;;;;;;;17.98;8.23;;;;;;;5.72;100.00;97757.31;4383810;80;28587;-87
2022/12/11 03:22:43;;;;;;;15.35;7.33;;;;;;;5.40;100.00;97757.63;4364087;81;28509;-86
2022/12/11 03:28:48;;;;;;;17.13;7.57;;;;;;;5.80;100.00;97756.19;4366406;81;28494;-85
2022/12/11 03:35:02;;;;;;;15.45;7.80;;;;;;;5.95;100.00;97740.23;4368861;80;28496;-84
2022/12/11 03:41:04;;;;;;;13.72;6.50;;;;;;;5.62;100.00;97738.95;4361632;80;28534;-83
2022/12/11 03:47:07;;;;;;;15.03;7.12;;;;;;;4.79;100.00;97738.23;4360397;80;28469;-85
2022/12/11 03:53:09;;;;;;;15.50;7.75;;;;;;;5.63;100.00;97723.23;4388137;80;28498;-83
2022/12/11 03:59:10;;;;;;;14.98;7.25;;;;;;;5.83;100.00;97723.70;4352099;80;28493;-84
2022/12/11 04:05:11;;;;;;;14.85;7.28;;;;;;;5.52;100.00;97720.33;4387613;80;28470;-84
2022/12/11 04:30:16;;;;;;;13.90;6.70;;;;;;;5.57;100.00;97713.80;4374764;81;28525;-83
2022/12/11 04:36:17;;;;;;;12.30;5.78;;;;;;;6.03;100.00;97718.56;4388038;80;28564;-82
2022/12/11 05:59:36;;;;;;;10.20;5.75;;;;;;;-149.40;100.00;119126.13;4380736;80;28539;-83
2022/12/11 07:33:16;;;;;;;13.93;7.45;;;;;;;-149.40;100.00;119126.13;4303311;82;28579;-90
2022/12/11 07:39:17;;;;;;;13.10;6.85;;;;;;;-148.97;0.00;120891.61;4319884;82;28508;-91
2022/12/11 07:45:21;;;;;;;13.78;6.80;;;;;;;4.70;100.00;97705.25;4338646;82;28611;-91
2022/12/11 07:51:32;;;;;;;13.93;6.80;;;;;;;4.33;100.00;97718.64;4340411;82;28553;-88
2022/12/11 07:57:34;;;;;;;12.28;6.03;;;;;;;4.53;100.00;97714.89;4332415;82;28530;-87
2022/12/11 08:03:36;;;;;;;13.50;6.42;;;;;;;4.87;100.00;97715.28;4344296;82;28512;-88
2022/12/11 08:09:37;;;;;;;12.33;5.62;;;;;;;4.30;100.00;97729.20;4347196;82;28564;-88
2022/12/11 08:15:38;;;;;;;12.88;6.05;;;;;;;4.41;100.00;97721.51;4349292;79;28497;-87
2022/12/11 08:21:39;;;;;;;11.40;5.80;;;;;;;4.24;100.00;97725.30;4374335;80;28517;-86
2022/12/11 08:27:47;;;;;;;11.15;5.97;;;;;;;4.82;100.00;97711.97;4365376;80;28511;-90
2022/12/11 08:33:49;;;;;;;11.45;6.12;;;;;;;4.92;100.00;97712.73;4365691;80;28477;-85
2022/12/11 08:39:50;;;;;;;12.60;6.67;;;;;;;5.64;100.00;97722.19;4377540;80;28905;-86
2022/12/11 08:45:51;;;;;;;13.30;7.45;;;;;;;4.71;100.00;97716.73;4372124;80;28575;-82
2022/12/11 08:51:53;;;;;;;12.53;6.05;;;;;;;4.70;100.00;97717.23;4373162;80;28516;-82
2022/12/11 08:57:59;;;;;;;11.63;6.40;;;;;;;4.90;100.00;97713.48;4369973;80;28544;-82
2022/12/11 09:03:58;;;;;;;11.93;6.60;;;;;;;5.43;100.00;97710.54;4375660;80;28498;-82
2022/12/11 09:09:59;;;;;;;14.13;7.33;;;;;;;5.61;100.00;97715.45;4369886;80;28559;-86
2022/12/11 09:16:04;;;;;;;13.08;7.20;;;;;;;5.65;100.00;97711.81;4378881;80;28514;-84
2022/12/11 09:22:05;;;;;;;13.75;7.12;;;;;;;6.11;100.00;97720.88;4388497;80;29008;-83
2022/12/11 09:28:06;;;;;;;13.85;6.78;;;;;;;4.58;100.00;97737.17;4362712;80;28512;-87
2022/12/11 09:34:10;;;;;;;13.15;6.72;;;;;;;3.40;100.00;97747.77;4377296;80;28533;-84
2022/12/11 09:40:11;;;;;;;13.60;7.05;;;;;;;4.74;100.00;97725.59;4368584;80;28478;-83
2022/12/11 09:46:15;;;;;;;12.40;6.78;;;;;;;5.57;100.00;97708.98;4349718;80;28607;-83
2022/12/11 09:52:39;;;;;;;11.93;6.42;;;;;;;5.79;100.00;97698.55;4355009;81;28587;-83
2022/12/11 09:59:10;;;;;;;10.50;5.65;;;;;;;6.01;100.00;97700.62;4383453;80;28537;-83
2022/12/11 10:05:23;;;;;;;11.40;6.47;;;;;;;4.95;98.31;97696.83;4366038;81;28545;-83
2022/12/11 10:11:56;;;;;;;11.63;6.92;;;;;;;5.38;99.32;97697.08;4309817;80;28551;-84
2022/12/11 10:17:58;;;;;;;11.22;6.17;;;;;;;5.94;100.00;97688.74;4343173;80;28501;-83
2022/12/11 10:24:01;;;;;;;11.90;6.20;;;;;;;6.17;94.36;97691.61;4382192;81;28524;-83
2022/12/11 10:30:15;;;;;;;13.03;7.00;;;;;;;6.76;96.92;97689.28;4384027;80;28547;-83
2022/12/11 10:36:20;;;;;;;13.70;7.33;;;;;;;7.01;94.40;97686.77;4348209;81;28562;-83
2022/12/11 10:42:22;;;;;;;12.28;7.20;;;;;;;7.17;91.31;97679.81;4387629;80;28470;-83
2022/12/11 10:48:23;;;;;;;12.93;7.33;;;;;;;6.75;91.29;97689.79;4366474;81;28531;-84
2022/12/11 10:54:33;;;;;;;11.08;6.60;;;;;;;5.88;99.59;97695.00;4359064;81;28550;-84
2022/12/11 11:00:36;;;;;;;11.40;6.62;;;;;;;5.06;93.53;97693.38;4371728;81;28533;-84
2022/12/11 11:06:38;;;;;;;14.05;7.58;;;;;;;5.57;93.34;97683.65;4345849;80;28517;-84
2022/12/11 11:12:42;;;;;;;12.88;7.20;;;;;;;5.70;94.20;97681.28;4324769;81;28505;-83
2022/12/11 11:18:50;;;;;;;11.80;7.37;;;;;;;6.11;94.91;97676.02;4366685;80;28524;-84
2022/12/11 11:24:53;;;;;;;13.00;7.50;;;;;;;6.67;96.37;97670.96;4360761;80;28535;-84
2022/12/11 11:30:58;;;;;;;14.55;8.70;;;;;;;5.27;91.00;97673.89;4377565;81;28520;-84
2022/12/11 11:37:04;;;;;;;15.40;9.00;;;;;;;6.40;93.88;97675.55;4368881;80;28568;-84
2022/12/11 11:43:28;;;;;;;15.70;9.38;;;;;;;5.60;92.65;97685.05;4347803;80;28601;-84
2022/12/11 11:49:36;;;;;;;16.50;9.25;;;;;;;6.02;91.38;97674.25;4364364;81;28505;-84
2022/12/11 11:55:47;;;;;;;18.30;9.45;;;;;;;5.93;91.14;97675.09;4387379;80;28595;-87
2022/12/11 12:01:52;;;;;;;18.73;9.90;;;;;;;6.15;88.86;97673.19;4367250;80;28486;-84
2022/12/11 12:08:12;;;;;;;18.27;10.20;;;;;;;6.05;89.27;97667.64;4367974;80;28509;-85
2022/12/11 12:14:36;;;;;;;17.67;10.20;;;;;;;6.03;87.90;97667.04;4362148;81;28495;-84
2022/12/11 12:21:09;;;;;;;21.42;10.63;;;;;;;5.82;87.60;97668.73;4386462;79;28658;-84
2022/12/11 12:27:31;;;;;;;18.10;10.13;;;;;;;5.96;82.68;97677.30;4354125;80;28516;-82
2022/12/11 12:33:51;;;;;;;18.60;10.25;;;;;;;6.11;79.63;97670.69;4376452;81;28489;-85
2022/12/11 12:40:16;;;;;;;17.10;9.13;;;;;;;5.89;77.09;97677.95;4372124;80;28540;-88
2022/12/11 12:46:39;;;;;;;16.93;8.83;;;;;;;5.98;76.65;97669.05;4347087;80;28581;-85
2022/12/11 12:52:41;;;;;;;16.73;8.98;;;;;;;5.82;74.67;97662.58;4362092;80;28541;-85
2022/12/11 12:58:46;;;;;;;15.35;8.38;;;;;;;5.81;74.84;97663.63;4382790;80;28507;-86
2022/12/11 13:04:57;;;;;;;15.20;7.70;;;;;;;5.49;74.74;97669.33;4351466;81;28692;-86
2022/12/11 13:11:02;;;;;;;16.40;8.38;;;;;;;5.74;73.39;97682.96;4358007;80;28519;-86
2022/12/11 13:17:22;;;;;;;15.97;8.37;;;;;;;5.58;74.20;97693.27;4396282;78;28573;-84
2022/12/11 13:23:31;;;;;;;15.78;8.68;;;;;;;5.25;74.72;97716.75;4349687;80;28590;-84
2022/12/11 13:29:38;;;;;;;17.87;9.30;;;;;;;5.19;77.32;97719.52;4376166;81;28548;-84
2022/12/11 13:35:39;;;;;;;15.28;8.75;;;;;;;5.38;80.78;97719.73;4385532;80;28545;-85
2022/12/11 13:41:43;;;;;;;17.90;9.08;;;;;;;5.32;82.97;97726.00;4386093;80;28525;-86
2022/12/11 13:47:45;;;;;;;24.37;12.80;;;;;;;5.33;83.79;97725.46;4375759;81;28515;-88
2022/12/11 13:53:46;;;;;;;22.98;12.37;;;;;;;4.98;85.04;97726.48;4357901;81;28520;-87
2022/12/11 13:59:52;;;;;;;23.85;11.55;;;;;;;4.93;88.46;97731.67;4345981;81;28525;-87
2022/12/11 14:05:53;;;;;;;21.00;10.43;;;;;;;4.60;94.78;97734.27;4355421;81;28523;-85
2022/12/11 14:11:56;;;;;;;19.77;10.18;;;;;;;4.73;91.41;97723.97;4367648;80;28473;-85
2022/12/11 14:17:58;;;;;;;17.98;9.53;;;;;;;4.66;92.88;97728.05;4359589;80;28512;-85
2022/12/11 14:24:02;;;;;;;20.32;9.60;;;;;;;4.63;93.32;97744.45;4359683;81;28584;-85
2022/12/11 14:30:11;;;;;;;19.75;9.58;;;;;;;4.84;90.86;97735.18;4385996;80;28673;-85
2022/12/11 14:36:16;;;;;;;20.37;10.60;;;;;;;4.55;89.48;97738.13;4345336;81;28557;-83
2022/12/11 14:42:19;;;;;;;25.90;12.43;;;;;;;4.70;91.03;97743.06;4384814;80;28520;-84
2022/12/11 14:48:23;;;;;;;24.50;12.37;;;;;;;4.97;88.79;97745.35;4368543;80;28517;-84
2022/12/11 14:54:34;;;;;;;22.93;11.63;;;;;;;5.03;87.83;97746.59;4447770;80;28502;-84
2022/12/11 15:00:36;;;;;;;24.05;12.30;;;;;;;5.01;83.93;97739.34;4386654;81;28513;-84
2022/12/11 15:06:43;;;;;;;25.08;12.25;;;;;;;4.37;94.37;97745.59;4370897;80;28592;-84
2022/12/11 15:12:45;;;;;;;26.42;12.50;;;;;;;4.46;92.72;97752.24;4364148;80;28515;-84
2022/12/11 15:18:48;;;;;;;25.35;12.98;;;;;;;4.00;92.91;97767.67;4353244;79;28508;-84
2022/12/11 15:24:52;;;;;;;26.27;13.53;;;;;;;4.58;95.14;97770.45;4306008;81;28543;-85
2022/12/11 15:30:59;;;;;;;27.30;14.03;;;;;;;4.45;92.45;97772.73;4380513;80;28519;-82
2022/12/11 15:37:00;;;;;;;25.32;12.33;;;;;;;4.68;91.65;97765.91;4385885;81;28544;-84
2022/12/11 15:43:02;;;;;;;24.63;12.50;;;;;;;4.87;87.11;97789.86;4360985;80;28516;-85
2022/12/11 15:49:07;;;;;;;24.80;12.80;;;;;;;4.49;88.53;97797.06;4387405;80;28470;-86
2022/12/11 15:55:09;;;;;;;27.20;13.93;;;;;;;4.67;90.59;97810.05;4358582;80;28541;-86
2022/12/11 16:01:13;;;;;;;25.32;12.43;;;;;;;4.50;88.05;97803.19;4356250;80;28580;-84
2022/12/11 16:07:16;;;;;;;25.08;13.13;;;;;;;4.39;89.38;97808.21;4362063;80;28509;-88
2022/12/11 16:13:18;;;;;;;29.32;13.68;;;;;;;4.64;88.97;97813.17;4366331;81;28484;-85
2022/12/11 16:19:19;;;;;;;25.95;13.30;;;;;;;4.59;87.94;97814.66;4365385;80;28539;-86
2022/12/11 16:25:22;;;;;;;30.02;14.90;;;;;;;4.83;87.87;97811.30;4360089;81;28604;-87
2022/12/11 16:31:26;;;;;;;27.22;13.78;;;;;;;4.45;88.72;97810.50;4368698;80;28574;-82
2022/12/11 16:37:27;;;;;;;26.77;12.85;;;;;;;4.41;87.94;97816.78;4378557;81;28609;-82
2022/12/11 16:43:28;;;;;;;25.72;13.70;;;;;;;4.29;87.88;97818.05;4377728;80;28549;-86
2022/12/11 16:49:31;;;;;;;26.10;14.65;;;;;;;3.84;89.82;97824.39;4376477;80;28515;-86
2022/12/11 16:55:32;;;;;;;25.82;12.68;;;;;;;3.87;93.52;97819.16;4373584;81;28472;-85
2022/12/11 17:01:34;;;;;;;29.07;14.73;;;;;;;4.07;92.08;97812.85;4372997;81;43770;-81
2022/12/11 17:07:35;;;;;;;33.73;15.90;;;;;;;4.03;92.04;97813.80;4352422;81;44142;-85
2022/12/11 17:13:37;;;;;;;28.90;14.20;;;;;;;4.51;89.87;97815.46;4357854;81;28543;-85
2022/12/11 17:19:38;;;;;;;29.02;14.30;;;;;;;4.38;88.14;97825.75;4324697;80;28537;-82
2022/12/11 17:25:43;;;;;;;29.52;15.93;;;;;;;4.29;88.03;97824.70;4356583;81;28515;-83
2022/12/11 17:31:44;;;;;;;32.48;15.95;;;;;;;4.23;85.11;97815.46;4317264;82;28496;-84
2022/12/11 17:37:49;;;;;;;30.35;15.13;;;;;;;4.12;85.64;97814.32;4357110;82;44378;-85
2022/12/11 17:43:54;;;;;;;32.83;15.60;;;;;;;4.32;83.92;97816.27;4357141;81;28520;-80
2022/12/11 17:49:57;;;;;;;35.50;17.13;;;;;;;3.88;83.70;97829.56;4352635;81;28526;-80
2022/12/11 17:56:03;;;;;;;38.85;18.37;;;;;;;4.05;87.05;97833.01;4339210;81;44530;-80
2022/12/11 18:02:05;;;;;;;29.10;14.23;;;;;;;4.23;90.73;97830.89;4343040;82;43402;-81
2022/12/11 18:08:06;;;;;;;30.43;14.78;;;;;;;3.28;89.21;97836.13;4334898;81;44155;-81
2022/12/11 18:14:07;;;;;;;24.40;12.73;;;;;;;3.73;93.65;97842.38;4420006;80;28564;-79
2022/12/11 18:20:11;;;;;;;27.00;12.88;;;;;;;3.67;91.51;97848.54;4415931;80;28516;-83
2022/12/11 18:26:13;;;;;;;27.80;14.73;;;;;;;3.41;94.28;97849.83;4429360;78;28531;-82
2022/12/11 18:32:14;;;;;;;24.52;13.03;;;;;;;3.65;93.58;97861.23;4342648;80;28503;-83
2022/12/11 18:38:16;;;;;;;24.15;12.78;;;;;;;3.80;91.68;97849.80;4370700;80;28538;-80
2022/12/11 18:44:21;;;;;;;24.63;13.53;;;;;;;3.93;91.35;97847.52;4347228;80;28481;-79
2022/12/11 18:50:20;;;;;;;25.88;13.55;;;;;;;3.90;88.18;97849.30;4343283;81;42893;-79
2022/12/11 18:56:22;;;;;;;30.17;13.88;;;;;;;4.01;87.83;97843.27;4339670;81;28466;-78
2022/12/11 19:02:24;;;;;;;26.85;14.20;;;;;;;3.77;85.29;97843.55;4360153;81;43360;-80
2022/12/11 19:08:25;;;;;;;29.63;14.25;;;;;;;3.75;83.49;97845.63;4373846;81;43406;-85
2022/12/11 19:14:26;;;;;;;27.45;13.62;;;;;;;3.44;87.84;97849.42;4374376;81;28493;-85
2022/12/11 19:20:27;;;;;;;26.82;13.75;;;;;;;3.96;87.19;97844.45;4357068;81;43410;-82
2022/12/11 19:26:29;;;;;;;28.65;15.60;;;;;;;4.21;84.77;97837.45;4340358;80;43761;-87
2022/12/11 19:32:33;;;;;;;33.33;16.75;;;;;;;3.96;86.29;97839.13;4403976;80;44135;-85
2022/12/11 19:38:35;;;;;;;32.88;16.35;;;;;;;4.03;86.80;97835.87;4397875;80;28530;-84
2022/12/11 19:44:38;;;;;;;28.67;15.43;;;;;;;3.75;86.28;97834.98;4394557;80;28949;-85
2022/12/11 19:50:42;;;;;;;32.15;16.67;;;;;;;3.87;84.16;97835.11;4321039;80;28519;-92
2022/12/11 19:56:46;;;;;;;30.05;15.20;;;;;;;3.88;84.04;97828.23;4431152;80;44110;-84
2022/12/11 20:02:47;;;;;;;40.08;18.77;;;;;;;3.79;85.45;97824.73;4343769;82;44490;-85
2022/12/11 20:08:49;;;;;;;34.95;17.55;;;;;;;3.88;83.91;97824.23;4426344;79;28601;-85
2022/12/11 20:14:50;;;;;;;38.33;18.50;;;;;;;3.48;84.63;97828.52;4431369;78;44569;-84
2022/12/11 20:21:03;;;;;;;35.83;18.45;;;;;;;3.78;83.92;97831.89;4396557;79;28514;-90
2022/12/11 20:27:05;;;;;;;36.20;18.17;;;;;;;3.75;82.98;97827.84;4297171;80;44484;-89
2022/12/11 20:33:06;;;;;;;32.78;16.70;;;;;;;3.26;82.63;97840.81;4403384;80;44154;-89
2022/12/11 20:39:08;;;;;;;30.70;15.50;;;;;;;3.43;83.80;97844.31;4463715;79;44099;-89
2022/12/11 20:45:10;;;;;;;30.12;14.70;;;;;;;3.20;85.73;97850.98;4425138;79;28513;-87
2022/12/11 20:51:15;;;;;;;30.10;16.23;;;;;;;3.46;83.96;97844.70;4327696;81;28572;-87
2022/12/11 20:57:19;;;;;;;30.55;15.43;;;;;;;3.13;84.02;97840.40;4350261;81;28561;-87
2022/12/11 21:03:27;;;;;;;30.62;15.78;;;;;;;3.29;84.04;97842.24;4330847;81;44094;-88
2022/12/11 21:09:28;;;;;;;33.98;15.08;;;;;;;3.17;83.48;97840.27;4330669;81;28548;-92
2022/12/11 21:15:33;;;;;;;31.97;15.70;;;;;;;2.97;84.84;97838.22;4302507;81;28504;-93
2022/12/11 21:21:40;;;;;;;28.17;14.18;;;;;;;3.17;84.18;97845.58;4367284;80;43411;-90
2022/12/11 21:27:43;;;;;;;27.70;14.28;;;;;;;3.24;85.87;97844.20;4353864;81;43410;-89
2022/12/11 21:33:45;;;;;;;30.50;14.93;;;;;;;2.82;86.65;97845.13;4363933;81;44088;-91
2022/12/11 21:39:46;;;;;;;29.75;15.20;;;;;;;2.68;87.31;97857.13;4368386;81;44123;-89
2022/12/11 21:45:47;;;;;;;32.55;15.28;;;;;;;2.79;87.97;97855.14;4341275;81;44088;-88
2022/12/11 21:51:50;;;;;;;34.45;17.17;;;;;;;3.01;85.79;97864.64;4366058;81;44130;-88
2022/12/11 21:57:53;;;;;;;30.70;15.70;;;;;;;3.02;85.37;97876.39;4415036;80;44126;-86
2022/12/11 22:03:54;;;;;;;33.63;16.70;;;;;;;3.01;84.45;97876.09;4446228;80;44126;-88
2022/12/11 22:09:56;;;;;;;33.08;16.55;;;;;;;3.11;82.82;97868.98;4446752;79;44111;-95
2022/12/11 22:15:58;;;;;;;37.40;16.70;;;;;;;3.36;81.21;97870.92;4361739;81;44443;-82
2022/12/11 22:21:59;;;;;;;37.48;16.32;;;;;;;3.28;81.11;97863.20;4369597;80;44450;-80
2022/12/11 22:28:01;;;;;;;33.35;15.08;;;;;;;3.39;80.20;97864.38;4377231;81;44151;-82
2022/12/11 22:34:02;;;;;;;31.93;15.35;;;;;;;3.42;79.25;97851.98;4375183;81;44107;-82
2022/12/11 22:40:04;;;;;;;32.85;15.68;;;;;;;3.32;80.26;97850.61;4369537;80;44119;-83
2022/12/11 22:46:05;;;;;;;35.70;15.70;;;;;;;2.91;81.74;97852.63;4389352;80;44466;-82
2022/12/11 22:52:06;;;;;;;33.23;14.83;;;;;;;3.04;82.02;97846.98;4389097;81;44126;-81
2022/12/11 22:58:07;;;;;;;27.52;13.45;;;;;;;2.94;80.96;97854.05;4393514;80;43452;-81
2022/12/11 23:04:08;;;;;;;31.05;13.78;;;;;;;3.01;78.49;97857.50;4396120;80;44063;-83
2022/12/11 23:10:10;;;;;;;32.65;14.87;;;;;;;2.99;79.22;97858.23;4395793;80;44126;-83
2022/12/11 23:16:11;;;;;;;31.62;13.88;;;;;;;3.17;77.90;97855.38;4390826;81;44142;-82
2022/12/11 23:22:12;;;;;;;26.48;12.98;;;;;;;3.24;78.19;97843.41;4390222;80;43318;-82
2022/12/11 23:28:13;;;;;;;28.45;13.38;;;;;;;3.34;76.78;97845.89;4468152;78;43419;-82
2022/12/11 23:34:14;;;;;;;28.00;12.85;;;;;;;3.45;77.13;97857.69;4375252;81;43538;-81
2022/12/11 23:40:15;;;;;;;30.15;12.43;;;;;;;3.63;76.12;97855.62;4390300;80;43436;-81
2022/12/11 23:46:19;;;;;;;26.77;12.25;;;;;;;3.51;77.90;97858.68;4462837;78;43432;-81
2022/12/11 23:52:21;;;;;;;25.77;12.43;;;;;;;3.56;78.37;97852.72;4461509;78;42927;-82
2022/12/11 23:58:24;;;;;;;28.40;12.73;;;;;;;3.59;78.89;97853.61;4467212;78;43931;-81
